Time;durP1;ratioP1;P1;durP2;ratioP2;P2;SDS_P1;SDS_P2;PMS_P1;PMS_P2;Temp;Humidity;BMP_temperature;BMP_pressure;BME280_temperature;BME280_humidity;BME280_pressure;Samples;Min_cycle;Max_cycle;Signal;HPM_P1;HPM_P2
2021/11/15 00:00:53;;;;;;;24.33;16.30;;;;;;;7.08;90.38;96014.13;5015090;28;20257;-81
2021/11/15 00:03:22;;;;;;;23.00;16.07;;;;;;;7.09;90.43;96011.41;5027069;28;20209;-80
2021/11/15 00:05:48;;;;;;;20.67;15.57;;;;;;;7.13;89.83;96011.91;5035042;28;20680;-81
2021/11/15 00:08:15;;;;;;;22.77;15.97;;;;;;;7.21;89.15;96012.00;5033055;28;20205;-79
2021/11/15 00:10:42;;;;;;;21.63;15.97;;;;;;;7.28;89.02;96013.84;5034673;28;20221;-81
2021/11/15 00:13:08;;;;;;;19.70;15.17;;;;;;;7.32;88.54;96013.53;5019925;28;20210;-81
2021/11/15 00:15:35;;;;;;;21.13;16.17;;;;;;;7.22;87.63;96019.53;5034423;28;20209;-80
2021/11/15 00:18:02;;;;;;;21.53;15.60;;;;;;;6.90;89.38;96022.56;5034462;28;20209;-80
2021/11/15 00:20:30;;;;;;;20.90;15.47;;;;;;;6.92;89.54;96020.69;5032853;28;20248;-80
2021/11/15 00:22:56;;;;;;;22.77;14.53;;;;;;;6.87;89.49;96014.38;5018221;28;20222;-80
2021/11/15 00:25:23;;;;;;;24.63;16.37;;;;;;;6.95;89.56;96011.88;5025301;28;20202;-81
2021/11/15 00:27:49;;;;;;;21.47;15.07;;;;;;;6.94;88.77;96018.75;5034933;28;20249;-80
2021/11/15 00:30:16;;;;;;;20.77;15.33;;;;;;;6.66;90.31;96018.91;5025351;28;20231;-78
2021/11/15 00:32:43;;;;;;;21.73;14.80;;;;;;;6.51;91.57;96016.00;5015544;28;20580;-81
2021/11/15 00:35:11;;;;;;;23.90;16.63;;;;;;;6.37;92.94;96019.81;5022716;28;20696;-78
2021/11/15 00:37:40;;;;;;;23.33;16.93;;;;;;;6.40;93.60;96016.16;5034426;28;20574;-81
2021/11/15 00:40:10;;;;;;;23.27;16.57;;;;;;;6.45;93.32;96029.34;5030023;28;20222;-80
2021/11/15 00:42:37;;;;;;;21.40;16.03;;;;;;;6.38;93.84;96023.19;5034542;28;20199;-79
2021/11/15 00:45:04;;;;;;;24.00;16.83;;;;;;;6.20;94.97;96030.75;5024163;28;20198;-80
2021/11/15 00:47:31;;;;;;;22.90;17.10;;;;;;;6.13;95.87;96017.75;5034329;28;20206;-78
2021/11/15 00:49:58;;;;;;;22.57;17.03;;;;;;;6.14;95.84;96024.47;5032152;28;20257;-81
2021/11/15 00:52:24;;;;;;;20.03;16.23;;;;;;;6.10;95.94;96030.81;5033004;28;20237;-81
2021/11/15 00:54:52;;;;;;;21.97;16.37;;;;;;;6.09;96.23;96030.94;5021518;28;20203;-80
2021/11/15 00:57:19;;;;;;;21.80;15.37;;;;;;;6.06;95.81;96026.09;5013502;28;20227;-80
2021/11/15 00:59:46;;;;;;;23.23;16.90;;;;;;;6.08;96.19;96030.13;5024712;28;20222;-81
2021/11/15 01:02:12;;;;;;;22.83;16.87;;;;;;;6.24;94.16;96024.44;5033370;28;20209;-80
2021/11/15 01:04:39;;;;;;;18.53;15.27;;;;;;;6.29;93.95;96032.50;5016938;28;20203;-81
2021/11/15 01:07:05;;;;;;;25.07;16.73;;;;;;;6.29;94.07;96034.25;5018346;28;20210;-79
2021/11/15 01:09:32;;;;;;;22.43;16.27;;;;;;;6.36;94.07;96033.53;5018790;28;20227;-81
2021/11/15 01:12:00;;;;;;;19.23;15.53;;;;;;;6.37;94.32;96030.03;5017901;28;20206;-80
2021/11/15 01:14:27;;;;;;;22.17;16.30;;;;;;;6.57;93.27;96036.72;5031919;28;20198;-81
2021/11/15 01:16:53;;;;;;;22.47;16.87;;;;;;;6.70;92.01;96031.28;5036400;28;20218;-79
2021/11/15 01:19:20;;;;;;;23.77;16.57;;;;;;;6.74;91.01;96034.34;5017942;28;20206;-79
2021/11/15 01:21:49;;;;;;;19.53;15.90;;;;;;;6.71;90.85;96032.91;5021635;28;20681;-81
2021/11/15 01:24:16;;;;;;;21.27;15.57;;;;;;;6.73;90.63;96031.00;5036923;28;20256;-79
2021/11/15 01:26:42;;;;;;;21.07;15.53;;;;;;;6.68;91.07;96019.56;5035387;28;20253;-81
2021/11/15 01:29:11;;;;;;;20.80;14.60;;;;;;;6.79;91.10;96019.38;5037100;28;20198;-81
2021/11/15 01:31:38;;;;;;;20.30;15.20;;;;;;;6.88;90.43;96024.47;5031788;28;20206;-81
2021/11/15 01:34:05;;;;;;;19.30;15.10;;;;;;;7.04;90.07;96021.28;5017058;28;20261;-80
2021/11/15 01:36:32;;;;;;;20.47;15.40;;;;;;;7.05;89.69;96016.97;5032778;28;20214;-81
2021/11/15 01:38:58;;;;;;;20.27;13.77;;;;;;;6.90;89.99;96021.75;5017183;28;20224;-79
2021/11/15 01:41:25;;;;;;;19.67;15.03;;;;;;;6.93;90.63;96029.13;5019199;28;20227;-80
2021/11/15 01:43:52;;;;;;;20.73;14.50;;;;;;;7.01;90.50;96024.13;5037464;28;20202;-81
2021/11/15 01:46:20;;;;;;;20.10;14.53;;;;;;;6.74;91.40;96019.78;5028149;28;20198;-79
2021/11/15 01:48:46;;;;;;;20.60;14.80;;;;;;;6.75;91.54;96025.72;5036007;28;20206;-80
2021/11/15 01:51:13;;;;;;;20.13;14.73;;;;;;;6.74;92.56;96034.34;5027572;28;20221;-81
2021/11/15 01:53:40;;;;;;;18.60;13.83;;;;;;;6.91;91.62;96031.06;5017647;28;20207;-80
2021/11/15 01:56:07;;;;;;;19.43;14.17;;;;;;;6.75;91.26;96025.72;5024633;28;20198;-81
2021/11/15 01:58:34;;;;;;;19.70;14.47;;;;;;;6.88;90.73;96021.91;5032439;28;20554;-80
2021/11/15 02:01:01;;;;;;;20.73;14.53;;;;;;;6.87;90.63;96024.59;5036437;28;20219;-82
2021/11/15 02:03:30;;;;;;;18.57;13.83;;;;;;;7.00;89.35;96016.56;5037534;28;20206;-83
2021/11/15 02:05:57;;;;;;;18.77;13.53;;;;;;;7.05;89.11;96015.19;5037276;28;20202;-80
2021/11/15 02:08:24;;;;;;;16.63;12.13;;;;;;;7.15;88.17;96015.94;5036162;28;20240;-82
2021/11/15 02:10:52;;;;;;;14.60;11.47;;;;;;;7.15;87.44;96010.81;5036725;28;20237;-83
2021/11/15 02:13:21;;;;;;;16.37;12.30;;;;;;;7.05;86.72;96014.41;5021829;28;20199;-83
2021/11/15 02:15:49;;;;;;;14.93;11.57;;;;;;;6.97;86.87;96009.19;5034712;28;20581;-82
2021/11/15 02:18:16;;;;;;;14.13;10.47;;;;;;;6.98;87.32;95998.00;5036837;28;20242;-82
2021/11/15 02:20:48;;;;;;;13.27;10.13;;;;;;;7.02;86.68;95996.75;5030387;28;20211;-82
2021/11/15 02:23:15;;;;;;;14.33;11.07;;;;;;;7.10;86.55;95997.66;5016647;28;20198;-82
2021/11/15 02:25:43;;;;;;;14.97;11.50;;;;;;;7.07;86.82;96004.81;5019993;28;20198;-80
2021/11/15 02:28:09;;;;;;;16.43;11.47;;;;;;;7.00;87.09;95996.91;5033041;28;20241;-80
2021/11/15 02:30:36;;;;;;;17.47;12.70;;;;;;;7.05;87.22;95991.34;5019705;28;20225;-80
2021/11/15 02:33:03;;;;;;;16.03;12.17;;;;;;;7.13;86.69;96002.47;5036305;28;20211;-80
2021/11/15 02:35:30;;;;;;;13.80;11.70;;;;;;;7.17;86.20;95995.31;5026195;28;20273;-82
2021/11/15 02:37:58;;;;;;;14.73;10.87;;;;;;;7.24;85.70;95989.47;5015850;28;20701;-83
2021/11/15 02:40:26;;;;;;;16.67;11.00;;;;;;;7.26;85.71;95986.75;5026639;28;20214;-83
2021/11/15 02:42:55;;;;;;;14.43;11.00;;;;;;;7.25;85.25;95988.53;5024597;28;20205;-79
2021/11/15 02:45:22;;;;;;;14.53;10.80;;;;;;;7.28;85.11;95987.44;5031044;28;20293;-79
2021/11/15 02:47:49;;;;;;;14.70;10.23;;;;;;;7.27;84.35;95989.19;5035644;28;20198;-80
2021/11/15 02:50:19;;;;;;;15.67;11.30;;;;;;;7.22;84.51;95993.94;5020575;28;20219;-80
2021/11/15 02:52:47;;;;;;;13.80;11.57;;;;;;;7.04;85.46;95988.00;5026172;28;20230;-80
2021/11/15 02:55:15;;;;;;;15.40;12.20;;;;;;;7.09;86.09;95987.56;5035417;28;20209;-81
2021/11/15 02:57:42;;;;;;;16.60;12.03;;;;;;;6.99;86.51;95994.47;5021834;28;20575;-81
2021/11/15 03:00:21;;;;;;;14.27;11.13;;;;;;;6.82;87.44;96003.75;5015743;28;20722;-80
2021/11/15 03:02:49;;;;;;;17.80;12.73;;;;;;;6.83;88.36;95997.69;5030107;28;20224;-81
2021/11/15 03:05:16;;;;;;;16.97;12.37;;;;;;;6.79;89.03;95998.91;5035233;28;20198;-80
2021/11/15 03:07:46;;;;;;;15.87;11.97;;;;;;;6.68;89.57;95992.25;5033518;28;20194;-80
2021/11/15 03:10:15;;;;;;;15.60;12.20;;;;;;;6.78;89.27;95998.09;5034836;28;20245;-81
2021/11/15 03:12:41;;;;;;;16.03;12.53;;;;;;;6.74;89.30;95993.41;5035174;28;20585;-80
2021/11/15 03:15:09;;;;;;;15.13;11.90;;;;;;;6.83;89.01;95988.25;5035280;28;20205;-80
2021/11/15 03:17:39;;;;;;;14.60;12.27;;;;;;;6.94;87.79;95985.47;5028845;28;20621;-81
2021/11/15 03:20:07;;;;;;;13.13;10.53;;;;;;;6.92;87.31;95987.41;5014379;28;20257;-80
2021/11/15 03:22:34;;;;;;;15.20;11.90;;;;;;;6.79;88.23;95992.03;5015448;28;20202;-81
2021/11/15 03:25:01;;;;;;;15.77;11.97;;;;;;;6.72;88.31;95982.53;5018205;28;20204;-79
2021/11/15 03:27:35;;;;;;;14.70;11.87;;;;;;;6.64;88.80;95993.47;5020428;28;20203;-81
2021/11/15 03:30:05;;;;;;;15.27;11.30;;;;;;;6.42;91.20;95992.06;5025539;28;20218;-81
2021/11/15 03:32:32;;;;;;;16.47;11.80;;;;;;;6.39;91.46;95989.78;5034570;28;20390;-80
2021/11/15 03:35:02;;;;;;;14.53;10.90;;;;;;;6.43;90.72;95986.00;5028283;28;20198;-80
2021/11/15 03:37:28;;;;;;;14.00;10.87;;;;;;;6.57;90.44;95988.09;5034241;28;20597;-79
2021/11/15 03:39:55;;;;;;;15.03;11.20;;;;;;;6.68;89.99;95994.00;5025033;28;20629;-80
2021/11/15 03:42:23;;;;;;;16.17;11.07;;;;;;;6.77;89.81;95988.00;5021566;28;20213;-81
2021/11/15 03:44:50;;;;;;;14.00;11.10;;;;;;;6.82;89.47;95985.84;5034022;28;20205;-81
2021/11/15 03:47:17;;;;;;;15.73;11.90;;;;;;;6.86;89.06;95989.72;5027555;28;20260;-79
2021/11/15 03:49:43;;;;;;;14.47;10.77;;;;;;;6.74;89.71;95988.28;5014072;28;20222;-79
2021/11/15 03:52:10;;;;;;;13.37;10.97;;;;;;;6.65;90.75;95991.72;5018946;28;20230;-81
2021/11/15 03:54:36;;;;;;;13.87;11.13;;;;;;;6.70;90.78;96000.59;5020784;28;20202;-80
2021/11/15 03:57:03;;;;;;;13.53;10.67;;;;;;;6.83;89.89;95997.69;5017097;28;20225;-79
2021/11/15 03:59:29;;;;;;;12.60;9.87;;;;;;;6.75;89.00;95997.56;5033712;28;20222;-80
2021/11/15 04:01:57;;;;;;;13.47;9.97;;;;;;;6.63;89.75;95988.50;5031257;28;20213;-81
2021/11/15 04:04:28;;;;;;;13.90;10.80;;;;;;;6.49;91.82;95992.31;5025049;28;20558;-80
2021/11/15 04:06:54;;;;;;;13.63;11.17;;;;;;;6.46;92.07;95987.50;5032152;28;20248;-81
2021/11/15 04:09:21;;;;;;;15.03;10.97;;;;;;;6.43;92.04;95985.22;5033867;28;20206;-80
2021/11/15 04:11:47;;;;;;;12.57;10.30;;;;;;;6.28;93.19;95991.72;5033170;28;20209;-80
2021/11/15 04:14:15;;;;;;;13.90;10.73;;;;;;;6.28;93.78;95997.66;5015686;28;20202;-80
2021/11/15 04:16:44;;;;;;;15.20;11.07;;;;;;;6.17;94.38;95990.13;5013796;28;20257;-81
2021/11/15 04:19:16;;;;;;;15.23;11.00;;;;;;;6.18;94.72;95990.00;5032729;28;20214;-80
2021/11/15 04:21:43;;;;;;;14.67;10.70;;;;;;;6.17;95.82;95979.91;5024825;28;20199;-79
2021/11/15 04:24:10;;;;;;;16.33;11.37;;;;;;;6.18;95.75;95979.78;5021303;28;20213;-81
2021/11/15 04:26:36;;;;;;;15.93;11.47;;;;;;;6.24;96.15;95986.88;5033071;28;20202;-80
2021/11/15 04:29:03;;;;;;;16.77;12.07;;;;;;;6.24;96.37;95983.53;5027554;28;20574;-80
2021/11/15 04:31:29;;;;;;;19.03;11.83;;;;;;;6.08;97.57;95981.56;5014507;28;20231;-81
2021/11/15 04:33:56;;;;;;;16.87;11.50;;;;;;;6.23;96.42;95966.56;5020545;28;20206;-79
2021/11/15 04:36:24;;;;;;;14.97;11.20;;;;;;;6.38;95.29;95965.16;5026913;28;20199;-81
2021/11/15 04:38:51;;;;;;;18.27;11.20;;;;;;;6.56;93.35;95957.53;5032718;28;20222;-81
2021/11/15 04:41:17;;;;;;;15.67;11.03;;;;;;;6.49;93.30;95961.63;5026267;28;20213;-80
2021/11/15 04:43:44;;;;;;;15.43;10.33;;;;;;;6.56;92.69;95960.09;5029831;28;20226;-81
2021/11/15 04:46:11;;;;;;;14.23;10.27;;;;;;;6.73;91.65;95958.56;5023589;28;20689;-79
2021/11/15 04:48:37;;;;;;;12.17;9.33;;;;;;;6.74;90.40;95960.94;5032856;28;20218;-81
2021/11/15 04:51:04;;;;;;;12.67;9.13;;;;;;;6.82;89.24;95970.47;5027788;28;20214;-80
2021/11/15 04:53:31;;;;;;;11.50;8.70;;;;;;;6.85;88.91;95963.31;5032719;28;20766;-81
2021/11/15 04:55:58;;;;;;;11.23;8.63;;;;;;;6.85;88.59;95971.00;5021633;28;20655;-80
2021/11/15 04:58:24;;;;;;;11.30;8.50;;;;;;;6.71;89.73;95963.81;5017024;28;20237;-79
2021/11/15 05:00:51;;;;;;;12.73;9.67;;;;;;;6.68;90.00;95969.22;5030513;28;20222;-81
2021/11/15 05:03:20;;;;;;;13.30;9.87;;;;;;;6.72;89.90;95967.19;5027262;28;20199;-81
2021/11/15 05:05:47;;;;;;;12.90;9.33;;;;;;;6.55;91.71;95961.03;5015871;28;20298;-78
2021/11/15 05:08:14;;;;;;;14.53;10.07;;;;;;;6.59;92.16;95962.38;5023241;28;20674;-81
2021/11/15 05:10:42;;;;;;;12.37;10.17;;;;;;;6.57;91.75;95970.19;5036001;28;20233;-81
2021/11/15 05:13:08;;;;;;;13.03;9.37;;;;;;;6.60;91.94;95969.09;5026655;28;20226;-78
2021/11/15 05:15:35;;;;;;;13.40;9.67;;;;;;;6.63;91.27;95960.34;5022717;28;20206;-80
2021/11/15 05:18:01;;;;;;;12.83;9.87;;;;;;;6.78;90.81;95961.47;5027677;28;20223;-80
2021/11/15 05:20:28;;;;;;;14.87;10.10;;;;;;;6.82;89.96;95963.59;5022684;28;20228;-80
2021/11/15 05:22:55;;;;;;;12.60;9.67;;;;;;;6.90;89.86;95968.81;5023265;28;20203;-81
2021/11/15 05:25:21;;;;;;;12.27;9.60;;;;;;;6.97;89.50;95963.91;5026881;28;20190;-82
2021/11/15 05:27:50;;;;;;;13.10;9.40;;;;;;;7.00;89.00;95971.31;5021894;28;20205;-81
2021/11/15 05:30:19;;;;;;;13.60;9.90;;;;;;;6.97;88.75;95971.59;5032968;28;20233;-80
2021/11/15 05:32:47;;;;;;;13.27;10.10;;;;;;;7.01;88.70;95970.34;5027406;28;20209;-81
2021/11/15 05:35:14;;;;;;;12.27;9.43;;;;;;;7.09;88.03;95967.88;5026708;28;20617;-78
2021/11/15 05:37:40;;;;;;;15.97;10.33;;;;;;;7.08;87.89;95968.03;5033530;28;20222;-81
2021/11/15 05:40:08;;;;;;;14.37;9.87;;;;;;;6.97;88.57;95973.34;5035846;28;20749;-80
2021/11/15 05:42:35;;;;;;;13.77;9.70;;;;;;;7.01;88.41;95975.47;5025732;28;20667;-81
2021/11/15 05:45:04;;;;;;;12.33;9.10;;;;;;;7.06;88.15;95986.09;5032177;28;20206;-80
2021/11/15 05:47:30;;;;;;;12.60;9.53;;;;;;;7.11;87.59;95977.97;5034924;28;20205;-80
2021/11/15 05:49:57;;;;;;;12.57;9.53;;;;;;;7.09;87.69;95990.94;5035106;28;20217;-81
2021/11/15 05:52:24;;;;;;;11.50;9.43;;;;;;;7.11;87.37;95989.03;5032978;28;20234;-81
2021/11/15 05:54:50;;;;;;;12.27;9.60;;;;;;;7.13;87.41;95992.22;5036054;28;20214;-81
2021/11/15 05:57:17;;;;;;;12.67;9.07;;;;;;;7.13;87.01;95992.22;5035295;28;20209;-80
2021/11/15 05:59:44;;;;;;;11.80;8.50;;;;;;;7.12;87.44;95992.41;5036321;28;20237;-81
2021/11/15 06:02:12;;;;;;;11.20;9.07;;;;;;;7.04;87.16;95999.97;5034758;28;20281;-81
2021/11/15 06:04:38;;;;;;;11.80;9.00;;;;;;;6.93;88.15;96001.78;5034896;28;20206;-81
2021/11/15 06:07:06;;;;;;;11.20;9.03;;;;;;;6.96;88.21;95999.88;5034559;28;20203;-81
2021/11/15 06:09:32;;;;;;;12.93;9.30;;;;;;;6.63;90.26;95998.72;5034259;28;20491;-81
2021/11/15 06:11:58;;;;;;;12.90;9.27;;;;;;;6.56;90.93;96004.38;5034686;28;20198;-80
2021/11/15 06:14:25;;;;;;;14.20;9.20;;;;;;;6.59;91.33;95999.00;5034678;28;20206;-80
2021/11/15 06:16:51;;;;;;;12.80;8.77;;;;;;;6.76;90.32;96001.75;5034726;28;20205;-80
2021/11/15 06:19:19;;;;;;;11.47;8.50;;;;;;;6.80;89.95;95988.53;5033942;28;20230;-80
2021/11/15 06:21:45;;;;;;;11.03;8.30;;;;;;;6.87;89.21;95991.31;5034838;28;20573;-80
2021/11/15 06:24:12;;;;;;;11.73;8.43;;;;;;;6.94;88.56;95987.22;5030522;28;20199;-80
2021/11/15 06:26:38;;;;;;;11.17;8.20;;;;;;;6.94;88.53;95994.91;5023033;28;20198;-81
2021/11/15 06:29:05;;;;;;;12.40;8.23;;;;;;;6.85;88.18;96004.25;5024433;28;20210;-80
2021/11/15 06:31:32;;;;;;;11.03;8.03;;;;;;;6.92;88.14;95997.63;5017608;28;20280;-80
2021/11/15 06:33:58;;;;;;;11.67;8.23;;;;;;;6.99;87.98;95999.59;5034680;28;20209;-80
2021/11/15 06:36:26;;;;;;;11.80;8.30;;;;;;;7.02;87.36;95999.31;5034024;28;20737;-80
2021/11/15 06:38:56;;;;;;;43.70;34.67;;;;;;;7.04;88.55;96000.78;5025388;28;20231;-79
2021/11/15 06:41:23;;;;;;;18.33;14.40;;;;;;;7.10;87.45;96007.09;5014061;28;20273;-81
2021/11/15 06:43:50;;;;;;;11.77;9.33;;;;;;;7.17;86.44;96016.59;5014090;28;20214;-81
2021/11/15 06:46:16;;;;;;;11.83;8.77;;;;;;;7.19;86.11;96016.47;5019350;28;20208;-80
2021/11/15 06:48:43;;;;;;;9.97;8.30;;;;;;;7.12;86.18;96018.78;5034206;28;20202;-80
2021/11/15 06:51:10;;;;;;;11.07;8.83;;;;;;;7.08;86.00;96012.38;5034052;28;20249;-79
2021/11/15 06:53:39;;;;;;;12.67;9.80;;;;;;;6.85;86.04;96006.81;5033559;28;20229;-81
2021/11/15 06:56:07;;;;;;;14.53;11.53;;;;;;;6.59;88.63;96013.53;5033670;28;20206;-80
2021/11/15 06:58:34;;;;;;;18.70;12.37;;;;;;;6.39;90.33;96017.13;5033452;28;20226;-81
2021/11/15 07:01:04;;;;;;;17.73;12.63;;;;;;;6.16;92.67;96021.75;5032873;28;20763;-81
2021/11/15 07:03:30;;;;;;;33.57;24.00;;;;;;;6.16;92.99;96029.44;5033043;28;20209;-81
2021/11/15 07:05:57;;;;;;;19.13;12.10;;;;;;;6.28;91.69;96037.75;5033265;28;20293;-81
2021/11/15 07:08:24;;;;;;;14.67;10.33;;;;;;;6.21;92.00;96030.63;5033606;28;20202;-81
2021/11/15 07:10:52;;;;;;;14.27;10.90;;;;;;;6.20;92.03;96035.88;5033463;28;20242;-80
2021/11/15 07:13:19;;;;;;;14.03;10.47;;;;;;;6.26;92.18;96049.88;5033717;28;20205;-80
2021/11/15 07:15:45;;;;;;;15.67;11.00;;;;;;;6.24;92.09;96042.34;5033567;28;20237;-81
2021/11/15 07:18:12;;;;;;;16.17;11.07;;;;;;;6.23;92.60;96049.19;5033105;28;20234;-81
2021/11/15 07:20:39;;;;;;;14.77;10.87;;;;;;;6.21;92.59;96050.28;5033253;28;20728;-81
2021/11/15 07:23:06;;;;;;;16.07;11.70;;;;;;;6.20;92.47;96049.47;5031618;28;20764;-81
2021/11/15 07:25:32;;;;;;;15.73;11.70;;;;;;;6.21;93.48;96057.94;5013741;28;20203;-79
2021/11/15 07:28:00;;;;;;;14.37;11.23;;;;;;;6.22;92.64;96047.59;5032805;28;20198;-81
2021/11/15 07:30:28;;;;;;;16.23;11.50;;;;;;;6.23;93.46;96048.41;5033263;28;20233;-81
2021/11/15 07:32:55;;;;;;;18.13;11.00;;;;;;;6.06;93.95;96044.00;5033846;28;20214;-81
2021/11/15 07:35:22;;;;;;;16.33;11.70;;;;;;;5.90;95.72;96039.44;5033677;28;20206;-80
2021/11/15 07:37:48;;;;;;;15.07;10.57;;;;;;;5.83;95.66;96040.88;5033524;28;20794;-81
2021/11/15 07:40:18;;;;;;;15.77;11.30;;;;;;;5.88;96.56;96049.81;5033230;28;20701;-80
2021/11/15 07:42:46;;;;;;;15.90;11.73;;;;;;;5.92;96.97;96049.53;5032641;28;20576;-79
2021/11/15 07:45:15;;;;;;;26.77;19.93;;;;;;;5.94;96.12;96042.53;5033264;28;20252;-81
2021/11/15 07:47:41;;;;;;;16.03;11.70;;;;;;;6.06;95.22;96049.09;5033720;28;20670;-81
2021/11/15 07:50:10;;;;;;;14.33;9.93;;;;;;;6.04;94.08;96061.22;5033178;28;20229;-81
2021/11/15 07:52:37;;;;;;;13.87;9.93;;;;;;;5.89;95.17;96055.72;5032209;28;21032;-81
2021/11/15 07:55:06;;;;;;;14.47;10.10;;;;;;;5.85;95.27;96059.44;5032889;28;20209;-81
2021/11/15 07:57:33;;;;;;;12.57;9.50;;;;;;;5.99;94.76;96059.06;5032643;28;20210;-81
2021/11/15 07:59:59;;;;;;;11.87;9.10;;;;;;;6.08;93.58;96063.38;5033000;28;20229;-80
2021/11/15 08:02:27;;;;;;;11.77;9.13;;;;;;;6.11;92.55;96055.44;5033731;28;20198;-81
2021/11/15 08:04:54;;;;;;;12.80;9.30;;;;;;;5.89;93.99;96053.97;5032705;28;20209;-80
2021/11/15 08:07:20;;;;;;;11.07;8.87;;;;;;;5.79;94.92;96044.66;5032625;28;20209;-81
2021/11/15 08:09:47;;;;;;;14.00;10.03;;;;;;;5.82;95.99;96045.19;5032419;28;20218;-80
2021/11/15 08:12:14;;;;;;;14.80;10.97;;;;;;;5.83;95.90;96048.56;5032623;28;20198;-80
2021/11/15 08:14:42;;;;;;;14.30;10.33;;;;;;;5.93;95.85;96057.06;5019613;28;20217;-80
2021/11/15 08:17:10;;;;;;;23.67;17.33;;;;;;;6.01;94.86;96059.72;5017488;28;20203;-80
2021/11/15 08:19:39;;;;;;;14.70;10.57;;;;;;;5.94;95.45;96061.25;5016832;28;20229;-80
2021/11/15 08:22:06;;;;;;;14.03;10.00;;;;;;;5.90;95.98;96062.44;5032072;28;20260;-81
2021/11/15 08:25:05;;;;;;;14.63;10.70;;;;;;;5.99;95.83;96059.06;5036557;28;20732;-80
2021/11/15 08:27:31;;;;;;;15.27;11.20;;;;;;;6.19;94.00;96062.38;5026418;28;20636;-81
2021/11/15 08:29:58;;;;;;;13.30;10.03;;;;;;;6.20;94.40;96064.81;5036330;28;20229;-80
2021/11/15 08:32:25;;;;;;;13.63;10.03;;;;;;;6.03;93.58;96073.19;5036846;28;20202;-81
2021/11/15 08:34:55;;;;;;;16.93;9.63;;;;;;;5.88;95.26;96064.28;5036067;28;20240;-81
2021/11/15 08:37:22;;;;;;;15.13;9.70;;;;;;;5.83;95.44;96061.34;5036740;28;20651;-81
2021/11/15 08:39:48;;;;;;;12.70;9.30;;;;;;;5.89;94.86;96064.19;5036007;28;20290;-79
2021/11/15 08:42:15;;;;;;;11.77;8.97;;;;;;;6.01;93.57;96062.28;5036466;28;20202;-79
2021/11/15 08:44:45;;;;;;;10.60;8.27;;;;;;;6.13;91.81;96063.75;5036428;28;20206;-80
2021/11/15 08:47:12;;;;;;;11.73;8.00;;;;;;;6.36;90.47;96068.53;5036473;28;20205;-81
2021/11/15 08:49:39;;;;;;;8.77;7.57;;;;;;;6.45;88.90;96060.84;5037039;28;20218;-80
2021/11/15 08:52:08;;;;;;;8.10;6.87;;;;;;;6.55;88.20;96066.72;5036132;28;20230;-81
2021/11/15 08:54:34;;;;;;;8.63;6.60;;;;;;;6.73;86.93;96064.28;5036734;28;20210;-80
2021/11/15 08:57:04;;;;;;;8.67;6.87;;;;;;;6.65;86.54;96066.72;5037125;28;20229;-80
2021/11/15 08:59:30;;;;;;;9.13;7.17;;;;;;;6.78;86.43;96066.38;5036422;28;20245;-81
2021/11/15 09:01:57;;;;;;;9.17;6.63;;;;;;;6.85;85.34;96068.25;5037539;28;20213;-81
2021/11/15 09:04:24;;;;;;;7.70;6.60;;;;;;;6.74;85.89;96059.94;5036237;28;20222;-79
2021/11/15 09:06:50;;;;;;;7.80;6.20;;;;;;;6.86;86.16;96057.06;5037051;28;20202;-81
2021/11/15 09:09:19;;;;;;;8.10;6.60;;;;;;;6.97;85.47;96055.25;5037315;28;20205;-80
2021/11/15 09:11:46;;;;;;;7.77;6.37;;;;;;;7.03;84.75;96058.06;5037669;28;20202;-80
2021/11/15 09:14:13;;;;;;;7.53;6.00;;;;;;;6.94;84.15;96059.72;5025963;28;20203;-81
2021/11/15 09:16:40;;;;;;;8.77;6.73;;;;;;;6.78;85.37;96056.16;5016302;28;20845;-81
2021/11/15 09:19:06;;;;;;;8.80;6.83;;;;;;;6.61;86.31;96062.00;5021096;28;20280;-80
2021/11/15 09:21:33;;;;;;;9.80;7.13;;;;;;;6.59;87.87;96057.84;5035854;28;20222;-80
2021/11/15 09:24:00;;;;;;;10.83;7.27;;;;;;;6.69;86.96;96052.69;5035830;28;20584;-80
2021/11/15 09:26:28;;;;;;;8.70;6.87;;;;;;;6.60;88.04;96058.66;5027778;28;20199;-80
2021/11/15 09:28:55;;;;;;;8.40;6.43;;;;;;;6.64;87.60;96057.44;5034152;28;20264;-79
2021/11/15 09:31:21;;;;;;;7.40;6.07;;;;;;;6.66;87.86;96064.97;5035863;28;20245;-81
2021/11/15 09:33:48;;;;;;;7.93;6.37;;;;;;;6.64;87.82;96059.19;5035774;28;20210;-80
2021/11/15 09:36:16;;;;;;;7.50;6.47;;;;;;;6.69;86.98;96055.25;5035329;28;20206;-80
2021/11/15 09:38:44;;;;;;;9.67;6.77;;;;;;;6.67;86.42;96059.72;5035266;28;20289;-80
2021/11/15 09:41:11;;;;;;;7.33;6.30;;;;;;;6.83;86.05;96067.59;5035368;28;20225;-80
2021/11/15 09:43:39;;;;;;;7.83;6.67;;;;;;;6.66;86.84;96068.31;5034933;28;20206;-81
2021/11/15 09:46:08;;;;;;;7.87;6.73;;;;;;;6.74;86.82;96077.84;5035183;28;20213;-80
2021/11/15 09:48:37;;;;;;;8.13;6.33;;;;;;;6.64;86.23;96072.78;5035161;28;20207;-80
2021/11/15 09:51:04;;;;;;;8.83;6.10;;;;;;;6.53;87.63;96070.41;5035223;28;20237;-80
2021/11/15 09:53:31;;;;;;;8.83;6.03;;;;;;;6.59;88.10;96067.25;5034831;28;20705;-79
2021/11/15 09:55:59;;;;;;;9.13;6.67;;;;;;;6.56;87.88;96065.78;5015088;28;20218;-80
2021/11/15 09:58:26;;;;;;;8.63;6.03;;;;;;;6.64;87.53;96069.41;5014956;28;20772;-81
2021/11/15 10:00:55;;;;;;;6.80;5.97;;;;;;;6.65;87.39;96065.91;5027752;28;20226;-81
2021/11/15 10:03:21;;;;;;;9.43;6.93;;;;;;;6.82;87.04;96065.97;5035154;28;20225;-79
2021/11/15 10:05:48;;;;;;;8.17;6.87;;;;;;;6.75;86.92;96066.66;5034596;28;20199;-81
2021/11/15 10:08:17;;;;;;;8.87;7.10;;;;;;;6.68;87.09;96066.44;5034511;28;20202;-81
2021/11/15 10:10:46;;;;;;;7.73;6.93;;;;;;;6.50;87.43;96053.56;5034511;28;20284;-81
2021/11/15 10:13:33;;;;;;;8.30;7.33;;;;;;;6.57;87.99;96058.91;5032430;28;20681;-80
2021/11/15 10:16:04;;;;;;;11.27;7.33;;;;;;;6.46;88.26;96052.25;5015289;28;20298;-81
2021/11/15 10:18:52;;;;;;;8.37;6.97;;;;;;;6.48;88.70;96050.34;5015126;28;20210;-80
2021/11/15 10:21:23;;;;;;;9.67;7.20;;;;;;;6.65;87.68;96053.13;5028437;28;20222;-79
2021/11/15 10:23:54;;;;;;;9.27;8.03;;;;;;;6.59;88.07;96052.72;5034934;28;20314;-81
2021/11/15 10:26:27;;;;;;;8.90;7.03;;;;;;;6.41;88.94;96054.41;5028432;28;20203;-79
2021/11/15 10:29:06;;;;;;;9.27;7.20;;;;;;;6.42;88.94;96056.00;5015407;28;20294;-81
2021/11/15 10:31:44;;;;;;;9.37;7.23;;;;;;;6.65;88.54;96053.94;5014825;28;20234;-80
2021/11/15 10:34:13;;;;;;;8.73;6.83;;;;;;;6.85;87.35;96050.34;5034812;28;20208;-81
2021/11/15 10:36:56;;;;;;;8.77;7.30;;;;;;;6.98;85.59;96044.88;5034776;28;20198;-80
2021/11/15 10:39:28;;;;;;;7.90;6.63;;;;;;;7.03;85.36;96042.69;5034079;28;20272;-80
2021/11/15 10:41:57;;;;;;;8.20;6.90;;;;;;;7.05;84.96;96040.00;5034365;28;20229;-80
2021/11/15 10:44:24;;;;;;;7.97;6.73;;;;;;;7.07;84.57;96028.66;5021869;28;20214;-81
2021/11/15 10:46:54;;;;;;;7.70;6.70;;;;;;;6.98;84.59;96037.19;5014885;28;20199;-81
2021/11/15 10:49:22;;;;;;;8.60;7.40;;;;;;;6.86;85.04;96031.47;5015160;28;20205;-80
2021/11/15 10:51:52;;;;;;;9.77;8.00;;;;;;;6.92;85.32;96030.91;5021784;28;20627;-80
2021/11/15 10:54:48;;;;;;;26.47;20.03;;;;;;;6.94;86.04;96030.75;5034389;28;20827;-81
2021/11/15 10:57:38;;;;;;;27.30;20.40;;;;;;;7.02;87.12;96035.97;5034656;28;20719;-81
2021/11/15 11:00:29;;;;;;;9.00;7.40;;;;;;;6.89;85.71;96028.63;5033216;28;20261;-82
2021/11/15 11:03:09;;;;;;;9.30;7.70;;;;;;;6.70;85.74;96028.72;5034238;28;20202;-80
2021/11/15 11:05:37;;;;;;;11.03;7.70;;;;;;;6.86;86.07;96031.47;5034352;28;20198;-79
2021/11/15 11:08:11;;;;;;;8.83;7.60;;;;;;;6.77;85.24;96031.50;5034508;28;20209;-81
2021/11/15 11:10:47;;;;;;;10.30;7.70;;;;;;;6.85;89.50;96026.50;5034887;28;20614;-80
2021/11/15 11:13:16;;;;;;;8.87;7.20;;;;;;;6.92;86.81;96025.00;5033476;28;20202;-80
2021/11/15 11:15:46;;;;;;;10.13;7.00;;;;;;;7.19;93.00;96024.94;5033847;28;20209;-82
2021/11/15 11:18:17;;;;;;;8.10;6.40;;;;;;;7.34;92.32;96020.13;5033823;28;20212;-80
2021/11/15 11:24:17;;;;;;;7.53;6.37;;;;;;;7.84;87.66;96019.59;4997998;28;20213;-81
2021/11/15 11:26:49;;;;;;;7.50;6.17;;;;;;;7.77;81.18;96024.50;5025322;28;20230;-82
2021/11/15 11:29:19;;;;;;;9.17;7.03;;;;;;;7.56;81.76;96018.88;5014567;28;20210;-82
2021/11/15 11:31:48;;;;;;;8.37;6.70;;;;;;;7.40;83.81;96019.53;5027722;28;20210;-82
2021/11/15 11:34:16;;;;;;;7.77;6.57;;;;;;;7.54;89.08;96013.09;5034263;28;20210;-80
2021/11/15 11:36:43;;;;;;;48.83;37.13;;;;;;;7.68;85.05;96010.03;5033765;28;20206;-81
2021/11/15 11:39:11;;;;;;;15.23;12.40;;;;;;;7.80;84.87;96015.72;5034520;28;20623;-81